createdAt,value
2023-09-24T00:00:35.632Z,22.01
2023-09-24T00:03:20.114Z,22.00
2023-09-24T00:06:08.716Z,21.97
2023-09-24T00:08:52.777Z,22.00
2023-09-24T00:11:38.136Z,22.02
2023-09-24T00:14:22.181Z,21.91
2023-09-24T00:17:09.980Z,21.77
2023-09-24T00:19:53.960Z,21.75
2023-09-24T00:22:38.042Z,21.75
2023-09-24T00:25:22.780Z,21.83
2023-09-24T00:28:08.306Z,21.90
2023-09-24T00:30:53.322Z,21.91
2023-09-24T00:33:38.789Z,21.70
2023-09-24T00:36:22.736Z,21.77
2023-09-24T00:39:07.053Z,21.92
2023-09-24T00:41:51.812Z,21.84
2023-09-24T00:44:36.694Z,21.83
2023-09-24T00:47:21.041Z,21.96
2023-09-24T00:50:06.897Z,21.93
2023-09-24T00:52:52.299Z,21.91
2023-09-24T00:55:37.145Z,21.91
2023-09-24T00:58:21.138Z,21.99
2023-09-24T01:01:05.627Z,21.85
2023-09-24T01:03:51.040Z,21.90
2023-09-24T01:06:37.310Z,21.59
2023-09-24T01:09:21.783Z,21.83
2023-09-24T01:12:06.322Z,21.76
2023-09-24T01:14:50.813Z,21.81
2023-09-24T01:17:36.569Z,21.81
2023-09-24T01:20:22.787Z,21.56
2023-09-24T01:23:11.012Z,21.67
2023-09-24T01:25:56.907Z,21.73
2023-09-24T01:28:41.695Z,21.66
2023-09-24T01:31:27.992Z,21.84
2023-09-24T01:34:12.526Z,21.77
2023-09-24T01:36:56.696Z,21.76
2023-09-24T01:39:42.160Z,21.79
2023-09-24T01:42:28.153Z,21.67
2023-09-24T01:45:12.741Z,21.65
2023-09-24T01:47:57.314Z,21.57
2023-09-24T01:50:43.036Z,21.58
2023-09-24T01:53:26.996Z,21.70
2023-09-24T01:56:14.317Z,21.69
2023-09-24T01:58:59.665Z,21.68
2023-09-24T02:01:46.228Z,21.73
2023-09-24T02:04:30.241Z,21.77
2023-09-24T02:07:16.901Z,21.84
2023-09-24T02:10:01.001Z,21.86
2023-09-24T02:12:47.004Z,21.85
2023-09-24T02:15:32.490Z,21.92
2023-09-24T02:18:19.260Z,21.79
2023-09-24T02:21:03.872Z,21.77
2023-09-24T02:23:48.578Z,21.92
2023-09-24T02:26:33.957Z,21.76
2023-09-24T02:29:20.315Z,21.70
2023-09-24T02:32:05.593Z,21.83
2023-09-24T02:34:49.609Z,21.82
2023-09-24T02:37:34.108Z,21.71
2023-09-24T02:40:22.850Z,21.57
2023-09-24T02:43:07.012Z,21.66
2023-09-24T02:45:52.482Z,21.65
2023-09-24T02:48:37.395Z,21.55
2023-09-24T02:51:21.856Z,21.42
2023-09-24T02:54:06.725Z,21.38
2023-09-24T02:56:51.514Z,21.18
2023-09-24T02:59:36.147Z,21.42
2023-09-24T03:02:21.696Z,21.37
2023-09-24T03:05:07.050Z,21.28
2023-09-24T03:07:54.376Z,21.43
2023-09-24T03:10:40.112Z,21.39
2023-09-24T03:13:24.908Z,21.41
2023-09-24T03:16:08.895Z,21.40
2023-09-24T03:18:55.064Z,21.43
2023-09-24T03:21:39.153Z,21.50
2023-09-24T03:24:23.151Z,21.48
2023-09-24T03:27:07.176Z,21.32
2023-09-24T03:29:51.445Z,21.51
2023-09-24T03:32:35.830Z,21.51
2023-09-24T03:35:25.443Z,21.32
2023-09-24T03:38:10.173Z,21.48
2023-09-24T03:40:54.017Z,21.43
2023-09-24T03:43:38.357Z,21.46
2023-09-24T03:46:22.260Z,20.66
2023-09-24T03:49:06.210Z,21.53
2023-09-24T03:51:51.482Z,21.33
2023-09-24T03:54:35.428Z,21.35
2023-09-24T03:57:19.369Z,21.18
2023-09-24T04:00:08.195Z,21.12
2023-09-24T04:02:57.378Z,21.31
2023-09-24T04:05:41.423Z,21.38
2023-09-24T04:08:26.845Z,21.39
2023-09-24T04:11:13.178Z,21.41
2023-09-24T04:13:57.188Z,21.39
2023-09-24T04:16:41.015Z,21.55
2023-09-24T04:19:26.352Z,21.40
2023-09-24T04:22:10.408Z,21.42
2023-09-24T04:24:55.996Z,21.36
2023-09-24T04:27:40.228Z,21.33
2023-09-24T04:30:25.628Z,21.43
2023-09-24T04:33:10.151Z,21.41
2023-09-24T04:35:54.543Z,21.45
2023-09-24T04:38:38.937Z,21.40
2023-09-24T04:41:25.616Z,21.59
2023-09-24T04:44:09.597Z,21.58
2023-09-24T04:46:55.816Z,21.86
2023-09-24T04:49:39.625Z,22.11
2023-09-24T04:52:23.638Z,22.00
2023-09-24T04:55:08.168Z,22.11
2023-09-24T04:57:53.496Z,22.25
2023-09-24T05:00:37.421Z,22.23
2023-09-24T05:03:21.615Z,22.04
2023-09-24T05:06:06.389Z,22.25
2023-09-24T05:08:50.424Z,22.36
2023-09-24T05:11:34.363Z,22.50
2023-09-24T05:14:20.286Z,22.56
2023-09-24T05:17:04.364Z,22.65
2023-09-24T05:19:48.290Z,22.48
2023-09-24T05:22:32.259Z,22.64
2023-09-24T05:25:16.677Z,22.60
2023-09-24T05:28:00.663Z,22.65
2023-09-24T05:30:52.866Z,22.60
2023-09-24T05:33:36.972Z,22.89
2023-09-24T05:36:23.547Z,23.03
2023-09-24T05:39:07.570Z,23.32
2023-09-24T05:41:51.550Z,23.52
2023-09-24T05:44:35.511Z,23.58
2023-09-24T05:47:20.900Z,23.66
2023-09-24T05:50:05.145Z,23.27
2023-09-24T05:52:49.126Z,23.47
2023-09-24T05:55:33.025Z,23.92
2023-09-24T05:58:17.036Z,23.92
2023-09-24T06:01:01.132Z,24.05
2023-09-24T06:03:46.788Z,23.96
2023-09-24T06:06:30.953Z,24.05
2023-09-24T06:09:17.362Z,23.78
2023-09-24T06:12:01.527Z,23.80
2023-09-24T06:14:45.821Z,24.48
2023-09-24T06:17:30.442Z,24.20
2023-09-24T06:20:17.284Z,24.26
2023-09-24T06:23:01.262Z,23.89
2023-09-24T06:25:45.174Z,24.20
2023-09-24T06:28:29.334Z,23.98
2023-09-24T06:31:13.461Z,23.34
2023-09-24T06:33:57.550Z,23.92
2023-09-24T06:36:43.048Z,23.84
2023-09-24T06:39:27.181Z,23.84
2023-09-24T06:42:11.394Z,24.54
2023-09-24T06:44:56.415Z,24.30
2023-09-24T06:47:40.548Z,24.15
2023-09-24T06:50:25.115Z,23.96
2023-09-24T06:53:10.484Z,24.08
2023-09-24T06:55:54.479Z,24.41
2023-09-24T06:58:38.632Z,24.12
2023-09-24T07:01:22.923Z,24.58
2023-09-24T07:04:07.813Z,24.76
2023-09-24T07:06:53.425Z,24.84
2023-09-24T07:09:38.794Z,24.54
2023-09-24T07:12:23.373Z,24.69
2023-09-24T07:15:08.694Z,24.71
2023-09-24T07:17:52.698Z,24.67
2023-09-24T07:20:36.852Z,24.43
2023-09-24T07:23:21.962Z,24.35
2023-09-24T07:26:10.101Z,24.71
2023-09-24T07:28:54.698Z,24.76
2023-09-24T07:31:38.926Z,25.06
2023-09-24T07:34:22.762Z,25.06
2023-09-24T07:37:14.978Z,25.06
2023-09-24T07:39:59.548Z,24.72
2023-09-24T07:42:47.958Z,24.98
2023-09-24T07:45:31.913Z,25.13
2023-09-24T07:48:16.233Z,25.37
2023-09-24T07:51:00.226Z,25.62
2023-09-24T07:53:44.245Z,25.29
2023-09-24T07:56:28.390Z,25.32
2023-09-24T07:59:15.152Z,25.54
2023-09-24T08:01:59.997Z,25.43
2023-09-24T08:04:44.137Z,25.60
2023-09-24T08:07:30.573Z,25.58
2023-09-24T08:10:15.245Z,24.57
2023-09-24T08:12:59.243Z,25.30
2023-09-24T08:15:45.097Z,25.33
2023-09-24T08:18:29.655Z,25.26
2023-09-24T08:21:13.797Z,25.46
2023-09-24T08:23:58.704Z,25.49
2023-09-24T08:26:43.086Z,25.56
2023-09-24T08:29:27.140Z,25.42
2023-09-24T08:32:12.507Z,25.37
2023-09-24T08:34:56.600Z,25.38
2023-09-24T08:37:40.640Z,25.16
2023-09-24T08:40:25.965Z,25.30
2023-09-24T08:43:12.154Z,25.91
2023-09-24T08:45:56.301Z,25.71
2023-09-24T08:48:42.578Z,25.64
2023-09-24T08:51:26.868Z,25.54
2023-09-24T08:54:11.558Z,25.75
2023-09-24T08:56:55.485Z,25.89
2023-09-24T08:59:39.563Z,26.18
2023-09-24T09:02:24.227Z,25.56
2023-09-24T09:05:15.138Z,25.85
2023-09-24T09:08:00.956Z,25.75
2023-09-24T09:10:46.445Z,25.91
2023-09-24T09:13:30.465Z,26.13
2023-09-24T09:16:15.974Z,26.09
2023-09-24T09:19:03.642Z,25.66
2023-09-24T09:21:48.943Z,25.65
2023-09-24T09:24:32.870Z,25.68
2023-09-24T09:27:16.923Z,25.89
2023-09-24T09:30:17.902Z,26.18
2023-09-24T09:33:02.410Z,26.24
2023-09-24T09:35:46.457Z,26.42
2023-09-24T09:38:32.228Z,26.35
2023-09-24T09:41:19.847Z,26.50
2023-09-24T09:44:07.654Z,26.32
2023-09-24T09:46:54.182Z,26.65
2023-09-24T09:49:43.655Z,26.36
2023-09-24T09:52:35.961Z,26.34
2023-09-24T09:55:22.396Z,25.84
2023-09-24T09:58:21.500Z,26.25
2023-09-24T10:01:08.425Z,26.49
2023-09-24T10:03:54.583Z,26.54
2023-09-24T10:06:41.627Z,26.67
2023-09-24T10:09:36.156Z,26.18
2023-09-24T10:15:29.986Z,27.00
2023-09-24T10:18:27.006Z,27.01
2023-09-24T10:21:11.137Z,27.15
2023-09-24T10:23:55.150Z,26.63
2023-09-24T10:26:49.597Z,26.56
2023-09-24T10:30:07.595Z,26.63
2023-09-24T10:32:53.163Z,26.72
2023-09-24T10:35:37.447Z,26.84
2023-09-24T10:38:21.350Z,26.65
2023-09-24T10:41:06.592Z,26.70
2023-09-24T10:44:24.279Z,26.72
2023-09-24T10:47:26.557Z,27.19
2023-09-24T10:50:13.832Z,26.54
2023-09-24T10:53:00.244Z,27.06
2023-09-24T10:55:51.151Z,27.23
2023-09-24T10:58:50.737Z,27.29
2023-09-24T11:01:34.794Z,26.97
2023-09-24T11:04:27.435Z,26.62
2023-09-24T11:07:13.802Z,27.05
2023-09-24T11:09:57.788Z,27.15
2023-09-24T11:12:50.176Z,27.29
2023-09-24T11:15:35.407Z,27.05
2023-09-24T11:18:19.912Z,27.36
2023-09-24T11:21:05.540Z,27.49
2023-09-24T11:23:51.149Z,27.60
2023-09-24T11:26:35.082Z,27.38
2023-09-24T11:29:18.989Z,27.47
2023-09-24T11:32:04.009Z,27.36
2023-09-24T11:34:48.828Z,27.35
2023-09-24T11:37:46.689Z,27.50
2023-09-24T11:40:33.510Z,27.60
2023-09-24T11:43:17.966Z,26.97
2023-09-24T11:46:02.227Z,27.49
2023-09-24T11:48:47.271Z,27.16
2023-09-24T11:51:32.200Z,27.33
2023-09-24T11:54:16.993Z,27.44
2023-09-24T11:57:02.429Z,27.24
2023-09-24T11:59:46.393Z,27.26
2023-09-24T12:02:30.444Z,27.52
2023-09-24T12:05:30.603Z,27.63
2023-09-24T12:08:17.191Z,27.65
2023-09-24T12:11:01.277Z,27.45
2023-09-24T12:13:46.898Z,27.58
2023-09-24T12:16:30.932Z,27.43
2023-09-24T12:19:14.814Z,27.55
2023-09-24T12:21:58.689Z,27.84
2023-09-24T12:24:42.557Z,27.28
2023-09-24T12:27:30.269Z,27.49
2023-09-24T12:30:15.778Z,27.58
2023-09-24T12:32:59.743Z,27.68
2023-09-24T12:35:44.196Z,27.42
2023-09-24T12:38:28.240Z,27.66
2023-09-24T12:41:12.888Z,26.59
2023-09-24T12:43:57.147Z,27.20
2023-09-24T12:46:42.649Z,27.28
2023-09-24T12:49:26.713Z,27.42
2023-09-24T12:52:11.508Z,27.45
2023-09-24T12:54:55.455Z,27.52
2023-09-24T12:57:40.594Z,27.63
2023-09-24T13:00:24.830Z,27.79
2023-09-24T13:03:11.710Z,27.62
2023-09-24T13:05:55.768Z,27.46
2023-09-24T13:08:39.725Z,27.06
2023-09-24T13:11:23.989Z,27.33
2023-09-24T13:14:08.672Z,27.12
2023-09-24T13:16:53.581Z,27.29
2023-09-24T13:19:38.914Z,27.20
2023-09-24T13:22:22.798Z,27.10
2023-09-24T13:25:07.746Z,27.32
2023-09-24T13:27:52.060Z,26.54
2023-09-24T13:30:36.409Z,27.16
2023-09-24T13:33:20.424Z,27.53
2023-09-24T13:36:06.628Z,27.55
2023-09-24T13:38:51.182Z,27.03
2023-09-24T13:41:35.507Z,27.33
2023-09-24T13:44:19.653Z,27.16
2023-09-24T13:47:03.825Z,27.37
2023-09-24T13:49:47.941Z,27.36
2023-09-24T13:52:33.252Z,26.99
2023-09-24T13:55:17.401Z,27.23
2023-09-24T13:58:01.345Z,26.74
2023-09-24T14:00:46.604Z,26.41
2023-09-24T14:03:30.686Z,26.37
2023-09-24T14:06:14.965Z,26.37
2023-09-24T14:09:17.609Z,26.31
2023-09-24T14:12:23.325Z,26.19
2023-09-24T14:15:09.014Z,26.01
2023-09-24T14:18:07.156Z,25.55
2023-09-24T14:20:56.783Z,25.53
2023-09-24T14:23:41.391Z,25.44
2023-09-24T14:26:27.116Z,25.29
2023-09-24T14:29:11.125Z,25.43
2023-09-24T14:31:55.115Z,25.64
2023-09-24T14:34:38.988Z,25.51
2023-09-24T14:37:26.353Z,25.27
2023-09-24T14:40:11.912Z,25.90
2023-09-24T14:42:57.933Z,25.58
2023-09-24T14:45:41.818Z,25.63
2023-09-24T14:48:26.205Z,25.97
2023-09-24T14:51:10.327Z,25.40
2023-09-24T14:53:59.895Z,25.49
2023-09-24T14:56:44.192Z,25.22
2023-09-24T14:59:29.645Z,24.77
2023-09-24T15:02:14.442Z,25.14
2023-09-24T15:04:58.510Z,24.69
2023-09-24T15:07:42.430Z,24.81
2023-09-24T15:10:26.280Z,24.90
2023-09-24T15:13:10.434Z,25.08
2023-09-24T15:15:55.799Z,24.70
2023-09-24T15:18:39.832Z,24.27
2023-09-24T15:21:24.009Z,24.45
2023-09-24T15:24:12.779Z,24.12
2023-09-24T15:26:56.803Z,24.14
2023-09-24T15:29:40.725Z,23.92
2023-09-24T15:32:26.021Z,23.29
2023-09-24T15:35:11.086Z,23.67
2023-09-24T15:37:55.180Z,23.43
2023-09-24T15:40:40.176Z,23.69
2023-09-24T15:43:24.191Z,23.26
2023-09-24T15:46:15.230Z,23.42
2023-09-24T15:49:00.779Z,23.62
2023-09-24T15:51:45.050Z,23.50
2023-09-24T15:54:29.732Z,23.31
2023-09-24T15:57:13.825Z,23.29
2023-09-24T15:59:58.167Z,23.14
2023-09-24T16:02:43.321Z,23.09
2023-09-24T16:05:28.728Z,23.28
2023-09-24T16:08:12.803Z,23.15
2023-09-24T16:10:56.764Z,23.30
2023-09-24T16:13:41.429Z,23.15
2023-09-24T16:16:27.229Z,23.30
2023-09-24T16:19:11.470Z,23.38
2023-09-24T16:21:56.847Z,23.37
2023-09-24T16:24:40.757Z,23.20
2023-09-24T16:27:24.692Z,23.15
2023-09-24T16:30:10.024Z,23.05
2023-09-24T16:32:54.252Z,23.25
2023-09-24T16:35:41.589Z,23.11
2023-09-24T16:38:27.030Z,23.39
2023-09-24T16:41:13.088Z,23.12
2023-09-24T16:43:58.129Z,23.14
2023-09-24T16:46:42.170Z,23.30
2023-09-24T16:49:26.095Z,23.21
2023-09-24T16:52:10.113Z,22.83
2023-09-24T16:54:55.368Z,22.85
2023-09-24T16:57:39.723Z,22.92
2023-09-24T17:00:24.473Z,22.81
2023-09-24T17:03:09.150Z,22.46
2023-09-24T17:05:53.312Z,22.63
2023-09-24T17:08:37.347Z,22.77
2023-09-24T17:11:22.630Z,22.49
2023-09-24T17:14:07.839Z,22.49
2023-09-24T17:16:54.340Z,22.60
2023-09-24T17:19:39.065Z,22.52
2023-09-24T17:22:23.632Z,22.64
2023-09-24T17:25:08.655Z,22.52
2023-09-24T17:27:54.209Z,22.56
2023-09-24T17:30:40.673Z,22.35
2023-09-24T17:33:24.765Z,22.47
2023-09-24T17:36:11.087Z,22.17
2023-09-24T17:38:55.201Z,22.36
2023-09-24T17:41:39.310Z,22.27
2023-09-24T17:44:24.831Z,22.18
2023-09-24T17:47:08.849Z,22.45
2023-09-24T17:49:52.811Z,22.35
2023-09-24T17:52:36.947Z,22.34
2023-09-24T17:55:21.118Z,22.66
2023-09-24T17:58:06.201Z,22.44
2023-09-24T18:00:51.719Z,22.45
2023-09-24T18:03:36.442Z,22.43
2023-09-24T18:06:20.886Z,22.25
2023-09-24T18:09:06.293Z,22.14
2023-09-24T18:11:50.499Z,22.20
2023-09-24T18:14:34.948Z,21.93
2023-09-24T18:17:20.735Z,21.99
2023-09-24T18:20:05.465Z,21.65
2023-09-24T18:22:49.609Z,21.74
2023-09-24T18:25:34.010Z,21.65
2023-09-24T18:28:18.840Z,21.23
2023-09-24T18:31:03.342Z,21.34
2023-09-24T18:33:49.311Z,21.29
2023-09-24T18:36:34.102Z,21.52
2023-09-24T18:39:19.550Z,21.32
2023-09-24T18:42:04.053Z,21.58
2023-09-24T18:44:48.810Z,21.47
2023-09-24T18:47:37.895Z,21.67
2023-09-24T18:50:23.308Z,21.67
2023-09-24T18:53:10.593Z,21.73
2023-09-24T18:56:01.890Z,21.72
2023-09-24T18:58:46.912Z,21.70
2023-09-24T19:01:31.496Z,21.83
2023-09-24T19:04:16.356Z,22.00
2023-09-24T19:07:02.236Z,21.78
2023-09-24T19:09:47.417Z,21.76
2023-09-24T19:12:31.721Z,21.81
2023-09-24T19:15:18.413Z,22.04
2023-09-24T19:18:03.175Z,22.01
2023-09-24T19:20:50.387Z,21.93
2023-09-24T19:23:36.020Z,21.75
2023-09-24T19:26:20.278Z,21.52
2023-09-24T19:29:04.465Z,21.56
2023-09-24T19:31:48.527Z,21.50
2023-09-24T19:34:32.549Z,21.48
2023-09-24T19:37:16.804Z,21.64
2023-09-24T19:40:02.088Z,21.45
2023-09-24T19:42:47.744Z,21.46
2023-09-24T19:45:31.991Z,21.55
2023-09-24T19:48:16.197Z,21.40
2023-09-24T19:51:00.537Z,21.65
2023-09-24T19:53:44.886Z,21.72
2023-09-24T19:56:30.390Z,21.65
2023-09-24T19:59:14.332Z,21.49
2023-09-24T20:01:58.537Z,21.46
2023-09-24T20:04:42.797Z,21.53
2023-09-24T20:07:26.830Z,21.58
2023-09-24T20:10:15.357Z,21.62
2023-09-24T20:13:00.843Z,21.61
2023-09-24T20:15:44.964Z,21.72
2023-09-24T20:18:31.364Z,21.71
2023-09-24T20:21:15.469Z,21.55
2023-09-24T20:24:00.010Z,21.52
2023-09-24T20:26:45.730Z,21.54
2023-09-24T20:29:31.080Z,21.55
2023-09-24T20:32:15.097Z,21.41
2023-09-24T20:34:59.160Z,21.33
2023-09-24T20:37:43.117Z,21.21
2023-09-24T20:40:27.163Z,21.15
2023-09-24T20:43:11.712Z,21.23
2023-09-24T20:45:59.963Z,20.96
2023-09-24T20:48:43.947Z,20.98
2023-09-24T20:51:27.813Z,20.98
2023-09-24T20:54:11.928Z,21.12
2023-09-24T20:56:56.484Z,21.13
2023-09-24T20:59:45.604Z,21.01
2023-09-24T21:02:30.990Z,20.82
2023-09-24T21:05:15.181Z,20.88
2023-09-24T21:07:59.073Z,20.63
2023-09-24T21:10:43.122Z,20.35
2023-09-24T21:13:27.212Z,20.51
2023-09-24T21:16:11.178Z,20.49
2023-09-24T21:18:57.227Z,20.32
2023-09-24T21:21:41.185Z,20.35
2023-09-24T21:24:25.171Z,20.32
2023-09-24T21:27:09.157Z,20.34
2023-09-24T21:29:55.178Z,20.40
2023-09-24T21:32:39.189Z,20.27
2023-09-24T21:35:24.817Z,20.27
2023-09-24T21:38:08.747Z,20.32
2023-09-24T21:40:52.999Z,20.36
2023-09-24T21:43:37.019Z,20.46
2023-09-24T21:46:20.917Z,20.25
2023-09-24T21:49:04.982Z,20.39
2023-09-24T21:51:50.317Z,20.32
2023-09-24T21:54:35.162Z,20.47
2023-09-24T21:57:19.370Z,20.57
2023-09-24T22:00:11.860Z,20.58
2023-09-24T22:02:55.883Z,20.18
2023-09-24T22:05:43.808Z,20.26
2023-09-24T22:08:29.265Z,20.06
2023-09-24T22:11:13.244Z,19.92
2023-09-24T22:13:57.148Z,19.91
2023-09-24T22:16:41.733Z,19.84
2023-09-24T22:19:25.795Z,19.79
2023-09-24T22:22:09.737Z,19.86
2023-09-24T22:24:55.072Z,19.83
2023-09-24T22:27:39.253Z,19.90
2023-09-24T22:30:23.520Z,19.87
2023-09-24T22:33:07.658Z,19.89
2023-09-24T22:35:51.608Z,19.85
2023-09-24T22:38:35.665Z,19.81
2023-09-24T22:41:20.983Z,19.87
2023-09-24T22:44:05.420Z,19.80
2023-09-24T22:46:49.387Z,19.84
2023-09-24T22:49:33.297Z,19.95
2023-09-24T22:52:17.824Z,19.82
2023-09-24T22:55:02.496Z,19.88
2023-09-24T22:57:49.294Z,19.61
2023-09-24T23:00:33.524Z,19.89
2023-09-24T23:03:17.793Z,19.77
2023-09-24T23:06:02.177Z,19.89
2023-09-24T23:08:46.465Z,19.34
2023-09-24T23:11:30.659Z,19.54
2023-09-24T23:14:16.358Z,19.61
2023-09-24T23:17:00.791Z,19.45
2023-09-24T23:19:44.943Z,19.41
2023-09-24T23:22:30.311Z,19.67
2023-09-24T23:25:14.509Z,19.60
2023-09-24T23:27:59.025Z,19.36
2023-09-24T23:30:46.891Z,19.38
2023-09-24T23:33:31.389Z,19.32
2023-09-24T23:36:16.135Z,19.38
2023-09-24T23:39:00.479Z,19.40
2023-09-24T23:41:45.256Z,19.33
2023-09-24T23:44:29.754Z,19.34
2023-09-24T23:47:15.394Z,19.34
2023-09-24T23:49:59.605Z,19.39
2023-09-24T23:52:44.134Z,19.43
2023-09-24T23:55:28.278Z,19.53
2023-09-24T23:58:12.504Z,19.37
